sensor_id;sensor_type;location;lat;lon;timestamp;P1;durP1;ratioP1;P2;durP2;ratioP2
76417;SDS011;65250;47.602;19.002;2023-07-13T00:00:10;7.53;;;3.40;;
76417;SDS011;65250;47.602;19.002;2023-07-13T00:02:42;4.55;;;2.88;;
76417;SDS011;65250;47.602;19.002;2023-07-13T00:05:09;6.03;;;2.58;;
76417;SDS011;65250;47.602;19.002;2023-07-13T00:07:36;4.35;;;2.53;;
76417;SDS011;65250;47.602;19.002;2023-07-13T00:10:03;6.20;;;2.53;;
76417;SDS011;65250;47.602;19.002;2023-07-13T00:12:32;5.50;;;1.88;;
76417;SDS011;65250;47.602;19.002;2023-07-13T00:15:00;3.72;;;1.40;;
76417;SDS011;65250;47.602;19.002;2023-07-13T00:17:29;2.92;;;1.00;;
76417;SDS011;65250;47.602;19.002;2023-07-13T00:19:56;3.25;;;0.88;;
76417;SDS011;65250;47.602;19.002;2023-07-13T00:22:23;2.40;;;0.80;;
76417;SDS011;65250;47.602;19.002;2023-07-13T00:24:52;2.08;;;0.95;;
76417;SDS011;65250;47.602;19.002;2023-07-13T00:27:22;3.65;;;0.65;;
76417;SDS011;65250;47.602;19.002;2023-07-13T00:29:49;1.42;;;0.60;;
76417;SDS011;65250;47.602;19.002;2023-07-13T00:32:16;1.58;;;0.80;;
76417;SDS011;65250;47.602;19.002;2023-07-13T00:34:42;2.13;;;0.93;;
76417;SDS011;65250;47.602;19.002;2023-07-13T00:37:09;1.60;;;1.02;;
76417;SDS011;65250;47.602;19.002;2023-07-13T00:39:38;1.42;;;1.33;;
76417;SDS011;65250;47.602;19.002;2023-07-13T00:42:05;3.13;;;1.70;;
76417;SDS011;65250;47.602;19.002;2023-07-13T00:44:32;2.53;;;1.27;;
76417;SDS011;65250;47.602;19.002;2023-07-13T00:46:59;3.20;;;1.30;;
76417;SDS011;65250;47.602;19.002;2023-07-13T00:49:27;1.13;;;0.93;;
76417;SDS011;65250;47.602;19.002;2023-07-13T00:54:41;1.60;;;1.50;;
76417;SDS011;65250;47.602;19.002;2023-07-13T00:57:11;2.90;;;1.58;;
76417;SDS011;65250;47.602;19.002;2023-07-13T00:59:42;3.57;;;1.73;;
76417;SDS011;65250;47.602;19.002;2023-07-13T01:02:09;2.13;;;1.65;;
76417;SDS011;65250;47.602;19.002;2023-07-13T01:04:37;4.65;;;1.50;;
76417;SDS011;65250;47.602;19.002;2023-07-13T01:07:05;2.95;;;2.17;;
76417;SDS011;65250;47.602;19.002;2023-07-13T01:09:32;2.50;;;1.50;;
76417;SDS011;65250;47.602;19.002;2023-07-13T01:12:00;3.10;;;1.67;;
76417;SDS011;65250;47.602;19.002;2023-07-13T01:14:27;2.40;;;1.73;;
76417;SDS011;65250;47.602;19.002;2023-07-13T01:16:54;2.90;;;1.50;;
76417;SDS011;65250;47.602;19.002;2023-07-13T01:19:36;3.75;;;1.63;;
76417;SDS011;65250;47.602;19.002;2023-07-13T01:22:07;4.35;;;1.30;;
76417;SDS011;65250;47.602;19.002;2023-07-13T01:24:36;2.07;;;1.10;;
76417;SDS011;65250;47.602;19.002;2023-07-13T01:27:04;1.67;;;1.25;;
76417;SDS011;65250;47.602;19.002;2023-07-13T01:29:33;2.65;;;1.33;;
76417;SDS011;65250;47.602;19.002;2023-07-13T01:32:01;2.22;;;1.05;;
76417;SDS011;65250;47.602;19.002;2023-07-13T01:34:27;2.03;;;1.35;;
76417;SDS011;65250;47.602;19.002;2023-07-13T01:36:54;2.30;;;1.20;;
76417;SDS011;65250;47.602;19.002;2023-07-13T01:39:21;2.38;;;1.52;;
76417;SDS011;65250;47.602;19.002;2023-07-13T01:41:49;1.60;;;1.20;;
76417;SDS011;65250;47.602;19.002;2023-07-13T01:44:23;4.95;;;1.35;;
76417;SDS011;65250;47.602;19.002;2023-07-13T01:46:50;2.65;;;1.30;;
76417;SDS011;65250;47.602;19.002;2023-07-13T01:49:17;4.13;;;1.07;;
76417;SDS011;65250;47.602;19.002;2023-07-13T01:51:43;4.00;;;1.10;;
76417;SDS011;65250;47.602;19.002;2023-07-13T01:54:10;1.98;;;1.75;;
76417;SDS011;65250;47.602;19.002;2023-07-13T01:56:37;3.03;;;1.50;;
76417;SDS011;65250;47.602;19.002;2023-07-13T01:59:04;2.35;;;1.40;;
76417;SDS011;65250;47.602;19.002;2023-07-13T02:01:30;2.60;;;1.30;;
76417;SDS011;65250;47.602;19.002;2023-07-13T02:03:57;1.77;;;1.00;;
76417;SDS011;65250;47.602;19.002;2023-07-13T02:06:24;2.13;;;1.05;;
76417;SDS011;65250;47.602;19.002;2023-07-13T02:08:51;3.35;;;1.20;;
76417;SDS011;65250;47.602;19.002;2023-07-13T02:11:17;5.13;;;1.10;;
76417;SDS011;65250;47.602;19.002;2023-07-13T02:13:44;2.60;;;1.20;;
76417;SDS011;65250;47.602;19.002;2023-07-13T02:16:11;1.60;;;1.50;;
76417;SDS011;65250;47.602;19.002;2023-07-13T02:18:38;2.85;;;1.20;;
76417;SDS011;65250;47.602;19.002;2023-07-13T02:21:05;1.80;;;1.30;;
76417;SDS011;65250;47.602;19.002;2023-07-13T02:23:32;1.90;;;1.42;;
76417;SDS011;65250;47.602;19.002;2023-07-13T02:26:00;2.00;;;1.17;;
76417;SDS011;65250;47.602;19.002;2023-07-13T02:28:29;3.40;;;1.50;;
76417;SDS011;65250;47.602;19.002;2023-07-13T02:31:03;3.08;;;1.52;;
76417;SDS011;65250;47.602;19.002;2023-07-13T02:33:31;2.20;;;1.17;;
76417;SDS011;65250;47.602;19.002;2023-07-13T02:35:58;2.42;;;1.30;;
76417;SDS011;65250;47.602;19.002;2023-07-13T02:38:25;2.50;;;1.30;;
76417;SDS011;65250;47.602;19.002;2023-07-13T02:40:52;2.22;;;1.20;;
76417;SDS011;65250;47.602;19.002;2023-07-13T02:43:19;1.55;;;1.20;;
76417;SDS011;65250;47.602;19.002;2023-07-13T02:45:46;1.88;;;1.50;;
76417;SDS011;65250;47.602;19.002;2023-07-13T02:48:13;3.25;;;1.67;;
76417;SDS011;65250;47.602;19.002;2023-07-13T02:50:40;2.03;;;1.30;;
76417;SDS011;65250;47.602;19.002;2023-07-13T02:53:07;3.80;;;1.60;;
76417;SDS011;65250;47.602;19.002;2023-07-13T02:55:34;1.60;;;1.40;;
76417;SDS011;65250;47.602;19.002;2023-07-13T02:58:00;2.08;;;1.30;;
76417;SDS011;65250;47.602;19.002;2023-07-13T03:00:27;1.80;;;1.52;;
76417;SDS011;65250;47.602;19.002;2023-07-13T03:02:54;2.10;;;1.90;;
76417;SDS011;65250;47.602;19.002;2023-07-13T03:05:24;2.15;;;1.42;;
76417;SDS011;65250;47.602;19.002;2023-07-13T03:07:51;3.33;;;1.75;;
76417;SDS011;65250;47.602;19.002;2023-07-13T03:10:18;3.60;;;1.63;;
76417;SDS011;65250;47.602;19.002;2023-07-13T03:12:44;3.03;;;1.80;;
76417;SDS011;65250;47.602;19.002;2023-07-13T03:15:12;3.03;;;1.70;;
76417;SDS011;65250;47.602;19.002;2023-07-13T03:17:38;3.65;;;1.80;;
76417;SDS011;65250;47.602;19.002;2023-07-13T03:20:05;2.67;;;1.73;;
76417;SDS011;65250;47.602;19.002;2023-07-13T03:22:33;1.92;;;1.50;;
76417;SDS011;65250;47.602;19.002;2023-07-13T03:25:00;2.60;;;1.80;;
76417;SDS011;65250;47.602;19.002;2023-07-13T03:27:27;2.50;;;1.90;;
76417;SDS011;65250;47.602;19.002;2023-07-13T03:29:53;2.75;;;2.00;;
76417;SDS011;65250;47.602;19.002;2023-07-13T03:32:20;3.03;;;2.17;;
76417;SDS011;65250;47.602;19.002;2023-07-13T03:34:47;4.78;;;2.30;;
76417;SDS011;65250;47.602;19.002;2023-07-13T03:37:14;3.97;;;2.20;;
76417;SDS011;65250;47.602;19.002;2023-07-13T03:39:40;3.70;;;2.40;;
76417;SDS011;65250;47.602;19.002;2023-07-13T03:42:08;4.95;;;2.25;;
76417;SDS011;65250;47.602;19.002;2023-07-13T03:44:35;3.63;;;2.22;;
76417;SDS011;65250;47.602;19.002;2023-07-13T03:47:02;2.58;;;2.13;;
76417;SDS011;65250;47.602;19.002;2023-07-13T03:49:29;2.50;;;2.17;;
76417;SDS011;65250;47.602;19.002;2023-07-13T03:51:55;3.03;;;2.30;;
76417;SDS011;65250;47.602;19.002;2023-07-13T03:54:22;3.03;;;1.85;;
76417;SDS011;65250;47.602;19.002;2023-07-13T03:56:49;2.55;;;2.17;;
76417;SDS011;65250;47.602;19.002;2023-07-13T03:59:16;3.60;;;2.42;;
76417;SDS011;65250;47.602;19.002;2023-07-13T04:01:43;3.08;;;2.22;;
76417;SDS011;65250;47.602;19.002;2023-07-13T04:04:10;7.80;;;3.33;;
76417;SDS011;65250;47.602;19.002;2023-07-13T04:06:37;3.85;;;2.13;;
76417;SDS011;65250;47.602;19.002;2023-07-13T04:09:04;3.00;;;2.35;;
76417;SDS011;65250;47.602;19.002;2023-07-13T04:11:34;3.70;;;2.40;;
76417;SDS011;65250;47.602;19.002;2023-07-13T04:14:03;2.75;;;2.35;;
76417;SDS011;65250;47.602;19.002;2023-07-13T04:16:30;4.47;;;2.50;;
76417;SDS011;65250;47.602;19.002;2023-07-13T04:18:57;3.72;;;2.40;;
76417;SDS011;65250;47.602;19.002;2023-07-13T04:21:27;1.85;;;1.75;;
76417;SDS011;65250;47.602;19.002;2023-07-13T04:23:55;4.65;;;2.08;;
76417;SDS011;65250;47.602;19.002;2023-07-13T04:26:22;4.18;;;2.50;;
76417;SDS011;65250;47.602;19.002;2023-07-13T04:28:50;3.47;;;2.33;;
76417;SDS011;65250;47.602;19.002;2023-07-13T04:31:17;2.97;;;2.10;;
76417;SDS011;65250;47.602;19.002;2023-07-13T04:33:44;4.88;;;2.30;;
76417;SDS011;65250;47.602;19.002;2023-07-13T04:36:14;2.97;;;2.03;;
76417;SDS011;65250;47.602;19.002;2023-07-13T04:38:42;4.90;;;2.45;;
76417;SDS011;65250;47.602;19.002;2023-07-13T04:41:09;3.67;;;2.37;;
76417;SDS011;65250;47.602;19.002;2023-07-13T04:43:35;2.28;;;2.08;;
76417;SDS011;65250;47.602;19.002;2023-07-13T04:46:04;3.85;;;2.35;;
76417;SDS011;65250;47.602;19.002;2023-07-13T04:48:37;3.58;;;2.40;;
76417;SDS011;65250;47.602;19.002;2023-07-13T04:51:04;3.58;;;2.28;;
76417;SDS011;65250;47.602;19.002;2023-07-13T04:53:31;2.37;;;2.17;;
76417;SDS011;65250;47.602;19.002;2023-07-13T04:56:01;3.83;;;2.97;;
76417;SDS011;65250;47.602;19.002;2023-07-13T04:58:29;4.95;;;2.55;;
76417;SDS011;65250;47.602;19.002;2023-07-13T05:00:59;2.70;;;2.22;;
76417;SDS011;65250;47.602;19.002;2023-07-13T05:03:27;3.15;;;2.50;;
76417;SDS011;65250;47.602;19.002;2023-07-13T05:05:55;6.93;;;2.50;;
76417;SDS011;65250;47.602;19.002;2023-07-13T05:08:32;7.38;;;2.70;;
76417;SDS011;65250;47.602;19.002;2023-07-13T05:11:00;7.53;;;3.30;;
76417;SDS011;65250;47.602;19.002;2023-07-13T05:13:27;7.63;;;4.15;;
76417;SDS011;65250;47.602;19.002;2023-07-13T05:15:59;6.72;;;4.25;;
76417;SDS011;65250;47.602;19.002;2023-07-13T05:18:28;6.13;;;4.03;;
76417;SDS011;65250;47.602;19.002;2023-07-13T05:20:59;10.13;;;4.38;;
76417;SDS011;65250;47.602;19.002;2023-07-13T05:23:31;11.70;;;4.70;;
76417;SDS011;65250;47.602;19.002;2023-07-13T05:25:58;7.78;;;4.00;;
76417;SDS011;65250;47.602;19.002;2023-07-13T05:28:26;9.45;;;3.92;;
76417;SDS011;65250;47.602;19.002;2023-07-13T05:30:54;3.00;;;2.40;;
76417;SDS011;65250;47.602;19.002;2023-07-13T05:33:21;4.15;;;2.92;;
76417;SDS011;65250;47.602;19.002;2023-07-13T05:35:48;16.92;;;4.30;;
76417;SDS011;65250;47.602;19.002;2023-07-13T05:38:15;4.30;;;2.38;;
76417;SDS011;65250;47.602;19.002;2023-07-13T05:40:45;3.70;;;2.47;;
76417;SDS011;65250;47.602;19.002;2023-07-13T05:43:12;7.90;;;2.63;;
76417;SDS011;65250;47.602;19.002;2023-07-13T05:45:40;4.03;;;2.30;;
76417;SDS011;65250;47.602;19.002;2023-07-13T05:48:07;5.75;;;2.47;;
76417;SDS011;65250;47.602;19.002;2023-07-13T05:50:33;6.95;;;2.92;;
76417;SDS011;65250;47.602;19.002;2023-07-13T05:53:00;5.97;;;2.28;;
76417;SDS011;65250;47.602;19.002;2023-07-13T05:55:27;3.97;;;1.93;;
76417;SDS011;65250;47.602;19.002;2023-07-13T05:57:54;7.05;;;2.20;;
76417;SDS011;65250;47.602;19.002;2023-07-13T06:00:20;5.85;;;2.40;;
76417;SDS011;65250;47.602;19.002;2023-07-13T06:02:47;4.25;;;2.20;;
76417;SDS011;65250;47.602;19.002;2023-07-13T06:05:14;3.72;;;1.90;;
76417;SDS011;65250;47.602;19.002;2023-07-13T06:07:41;3.70;;;2.17;;
76417;SDS011;65250;47.602;19.002;2023-07-13T06:10:08;4.32;;;2.17;;
76417;SDS011;65250;47.602;19.002;2023-07-13T06:12:35;4.35;;;2.10;;
76417;SDS011;65250;47.602;19.002;2023-07-13T06:15:02;4.00;;;2.00;;
76417;SDS011;65250;47.602;19.002;2023-07-13T06:17:30;2.28;;;1.73;;
76417;SDS011;65250;47.602;19.002;2023-07-13T06:19:57;3.83;;;1.80;;
76417;SDS011;65250;47.602;19.002;2023-07-13T06:22:23;2.03;;;1.60;;
76417;SDS011;65250;47.602;19.002;2023-07-13T06:24:51;4.78;;;1.52;;
76417;SDS011;65250;47.602;19.002;2023-07-13T06:27:18;1.40;;;1.30;;
76417;SDS011;65250;47.602;19.002;2023-07-13T06:29:45;2.10;;;1.40;;
76417;SDS011;65250;47.602;19.002;2023-07-13T06:32:11;2.27;;;1.40;;
76417;SDS011;65250;47.602;19.002;2023-07-13T06:34:38;2.15;;;1.40;;
76417;SDS011;65250;47.602;19.002;2023-07-13T06:37:08;1.88;;;1.35;;
76417;SDS011;65250;47.602;19.002;2023-07-13T06:39:35;2.85;;;1.60;;
76417;SDS011;65250;47.602;19.002;2023-07-13T06:42:02;2.05;;;1.45;;
76417;SDS011;65250;47.602;19.002;2023-07-13T06:44:29;1.97;;;1.10;;
76417;SDS011;65250;47.602;19.002;2023-07-13T06:46:56;2.47;;;1.50;;
76417;SDS011;65250;47.602;19.002;2023-07-13T06:49:23;1.50;;;1.40;;
76417;SDS011;65250;47.602;19.002;2023-07-13T06:51:49;3.03;;;1.52;;
76417;SDS011;65250;47.602;19.002;2023-07-13T06:54:16;3.65;;;1.50;;
76417;SDS011;65250;47.602;19.002;2023-07-13T06:56:43;1.70;;;1.37;;
76417;SDS011;65250;47.602;19.002;2023-07-13T06:59:10;2.10;;;1.90;;
76417;SDS011;65250;47.602;19.002;2023-07-13T07:01:36;3.05;;;1.50;;
76417;SDS011;65250;47.602;19.002;2023-07-13T07:04:07;3.03;;;1.65;;
76417;SDS011;65250;47.602;19.002;2023-07-13T07:06:34;1.88;;;1.60;;
76417;SDS011;65250;47.602;19.002;2023-07-13T07:09:01;2.03;;;1.57;;
76417;SDS011;65250;47.602;19.002;2023-07-13T07:11:27;3.65;;;1.88;;
76417;SDS011;65250;47.602;19.002;2023-07-13T07:13:54;3.38;;;1.65;;
76417;SDS011;65250;47.602;19.002;2023-07-13T07:16:21;2.10;;;1.90;;
76417;SDS011;65250;47.602;19.002;2023-07-13T07:18:48;4.90;;;1.95;;
76417;SDS011;65250;47.602;19.002;2023-07-13T07:21:15;2.87;;;2.17;;
76417;SDS011;65250;47.602;19.002;2023-07-13T07:23:42;2.25;;;1.83;;
76417;SDS011;65250;47.602;19.002;2023-07-13T07:26:09;2.33;;;1.83;;
76417;SDS011;65250;47.602;19.002;2023-07-13T07:28:36;2.97;;;2.25;;
76417;SDS011;65250;47.602;19.002;2023-07-13T07:31:06;6.20;;;2.20;;
76417;SDS011;65250;47.602;19.002;2023-07-13T07:33:36;2.40;;;2.20;;
76417;SDS011;65250;47.602;19.002;2023-07-13T07:36:03;2.47;;;2.08;;
76417;SDS011;65250;47.602;19.002;2023-07-13T07:38:33;2.63;;;1.92;;
76417;SDS011;65250;47.602;19.002;2023-07-13T07:41:03;3.55;;;2.10;;
76417;SDS011;65250;47.602;19.002;2023-07-13T07:43:34;3.35;;;2.10;;
76417;SDS011;65250;47.602;19.002;2023-07-13T07:46:01;6.73;;;2.40;;
76417;SDS011;65250;47.602;19.002;2023-07-13T07:48:29;2.97;;;1.83;;
76417;SDS011;65250;47.602;19.002;2023-07-13T07:50:56;4.22;;;2.38;;
76417;SDS011;65250;47.602;19.002;2023-07-13T07:53:23;4.13;;;3.03;;
76417;SDS011;65250;47.602;19.002;2023-07-13T07:55:50;3.25;;;1.92;;
76417;SDS011;65250;47.602;19.002;2023-07-13T07:58:20;2.50;;;2.30;;
76417;SDS011;65250;47.602;19.002;2023-07-13T08:00:50;2.30;;;1.95;;
76417;SDS011;65250;47.602;19.002;2023-07-13T08:03:20;4.75;;;2.30;;
76417;SDS011;65250;47.602;19.002;2023-07-13T08:05:52;2.47;;;1.88;;
76417;SDS011;65250;47.602;19.002;2023-07-13T08:08:22;3.72;;;2.30;;
76417;SDS011;65250;47.602;19.002;2023-07-13T08:10:49;3.37;;;2.13;;
76417;SDS011;65250;47.602;19.002;2023-07-13T08:13:15;3.67;;;2.20;;
76417;SDS011;65250;47.602;19.002;2023-07-13T08:15:43;4.30;;;2.20;;
76417;SDS011;65250;47.602;19.002;2023-07-13T08:18:10;4.07;;;2.58;;
76417;SDS011;65250;47.602;19.002;2023-07-13T08:20:37;3.75;;;2.40;;
76417;SDS011;65250;47.602;19.002;2023-07-13T08:23:05;4.80;;;2.70;;
76417;SDS011;65250;47.602;19.002;2023-07-13T08:25:32;3.85;;;2.55;;
76417;SDS011;65250;47.602;19.002;2023-07-13T08:27:59;2.60;;;2.40;;
76417;SDS011;65250;47.602;19.002;2023-07-13T08:30:26;7.90;;;3.08;;
76417;SDS011;65250;47.602;19.002;2023-07-13T08:32:53;4.30;;;2.75;;
76417;SDS011;65250;47.602;19.002;2023-07-13T08:35:20;2.67;;;2.47;;
76417;SDS011;65250;47.602;19.002;2023-07-13T08:37:47;6.00;;;2.58;;
76417;SDS011;65250;47.602;19.002;2023-07-13T08:40:13;3.22;;;2.45;;
76417;SDS011;65250;47.602;19.002;2023-07-13T08:42:47;5.32;;;2.72;;
76417;SDS011;65250;47.602;19.002;2023-07-13T08:48:00;3.70;;;2.30;;
76417;SDS011;65250;47.602;19.002;2023-07-13T08:50:35;3.47;;;2.63;;
76417;SDS011;65250;47.602;19.002;2023-07-13T08:53:30;3.03;;;2.83;;
76417;SDS011;65250;47.602;19.002;2023-07-13T08:56:01;3.22;;;2.92;;
76417;SDS011;65250;47.602;19.002;2023-07-13T08:58:28;3.40;;;3.00;;
76417;SDS011;65250;47.602;19.002;2023-07-13T09:03:28;4.55;;;2.95;;
76417;SDS011;65250;47.602;19.002;2023-07-13T09:05:58;3.38;;;2.80;;
76417;SDS011;65250;47.602;19.002;2023-07-13T09:08:44;3.08;;;2.80;;
76417;SDS011;65250;47.602;19.002;2023-07-13T09:11:25;3.92;;;2.80;;
76417;SDS011;65250;47.602;19.002;2023-07-13T09:16:37;3.28;;;2.72;;
76417;SDS011;65250;47.602;19.002;2023-07-13T09:19:06;4.50;;;2.85;;
76417;SDS011;65250;47.602;19.002;2023-07-13T09:21:39;2.90;;;2.70;;
76417;SDS011;65250;47.602;19.002;2023-07-13T09:27:13;3.33;;;3.13;;
76417;SDS011;65250;47.602;19.002;2023-07-13T09:29:45;4.05;;;3.08;;
76417;SDS011;65250;47.602;19.002;2023-07-13T09:32:15;3.22;;;2.92;;
76417;SDS011;65250;47.602;19.002;2023-07-13T09:34:49;3.83;;;3.47;;
76417;SDS011;65250;47.602;19.002;2023-07-13T09:37:19;4.57;;;3.38;;
76417;SDS011;65250;47.602;19.002;2023-07-13T09:39:48;3.80;;;3.50;;
76417;SDS011;65250;47.602;19.002;2023-07-13T09:45:06;3.90;;;3.53;;
76417;SDS011;65250;47.602;19.002;2023-07-13T09:47:31;3.95;;;3.65;;
76417;SDS011;65250;47.602;19.002;2023-07-13T09:50:03;3.65;;;3.30;;
76417;SDS011;65250;47.602;19.002;2023-07-13T09:52:41;3.53;;;3.23;;
76417;SDS011;65250;47.602;19.002;2023-07-13T09:57:50;3.65;;;3.35;;
76417;SDS011;65250;47.602;19.002;2023-07-13T10:00:29;5.07;;;3.20;;
76417;SDS011;65250;47.602;19.002;2023-07-13T10:05:45;3.90;;;3.60;;
76417;SDS011;65250;47.602;19.002;2023-07-13T10:08:17;4.57;;;3.30;;
76417;SDS011;65250;47.602;19.002;2023-07-13T10:10:44;3.78;;;3.47;;
76417;SDS011;65250;47.602;19.002;2023-07-13T10:13:28;4.68;;;3.20;;
76417;SDS011;65250;47.602;19.002;2023-07-13T10:15:58;4.57;;;3.60;;
76417;SDS011;65250;47.602;19.002;2023-07-13T10:18:25;4.17;;;3.67;;
76417;SDS011;65250;47.602;19.002;2023-07-13T10:21:14;4.30;;;4.00;;
76417;SDS011;65250;47.602;19.002;2023-07-13T10:23:51;3.85;;;3.55;;
76417;SDS011;65250;47.602;19.002;2023-07-13T10:26:23;4.25;;;3.88;;
76417;SDS011;65250;47.602;19.002;2023-07-13T10:28:54;3.78;;;3.53;;
76417;SDS011;65250;47.602;19.002;2023-07-13T10:31:22;4.13;;;3.73;;
76417;SDS011;65250;47.602;19.002;2023-07-13T10:33:50;4.88;;;4.15;;
76417;SDS011;65250;47.602;19.002;2023-07-13T10:36:20;3.80;;;3.50;;
76417;SDS011;65250;47.602;19.002;2023-07-13T10:39:00;4.97;;;4.47;;
76417;SDS011;65250;47.602;19.002;2023-07-13T10:41:29;4.40;;;4.10;;
76417;SDS011;65250;47.602;19.002;2023-07-13T10:43:57;4.50;;;3.93;;
76417;SDS011;65250;47.602;19.002;2023-07-13T10:46:25;4.93;;;4.20;;
76417;SDS011;65250;47.602;19.002;2023-07-13T10:48:57;4.30;;;3.92;;
76417;SDS011;65250;47.602;19.002;2023-07-13T10:51:26;4.88;;;4.38;;
76417;SDS011;65250;47.602;19.002;2023-07-13T10:56:46;4.17;;;3.87;;
76417;SDS011;65250;47.602;19.002;2023-07-13T10:59:26;4.20;;;3.90;;
76417;SDS011;65250;47.602;19.002;2023-07-13T11:01:56;4.80;;;4.40;;
76417;SDS011;65250;47.602;19.002;2023-07-13T11:04:29;4.03;;;3.72;;
76417;SDS011;65250;47.602;19.002;2023-07-13T11:07:11;4.40;;;4.00;;
76417;SDS011;65250;47.602;19.002;2023-07-13T11:09:44;4.80;;;4.40;;
76417;SDS011;65250;47.602;19.002;2023-07-13T11:19:54;4.90;;;4.50;;
76417;SDS011;65250;47.602;19.002;2023-07-13T11:22:43;4.60;;;4.30;;
76417;SDS011;65250;47.602;19.002;2023-07-13T11:30:43;4.65;;;4.22;;
76417;SDS011;65250;47.602;19.002;2023-07-13T11:40:56;6.47;;;6.07;;
76417;SDS011;65250;47.602;19.002;2023-07-13T11:43:25;6.78;;;6.40;;
76417;SDS011;65250;47.602;19.002;2023-07-13T11:45:52;6.78;;;6.38;;
76417;SDS011;65250;47.602;19.002;2023-07-13T11:48:19;6.90;;;6.50;;
76417;SDS011;65250;47.602;19.002;2023-07-13T11:51:04;6.97;;;6.57;;
76417;SDS011;65250;47.602;19.002;2023-07-13T11:53:36;6.22;;;5.82;;
76417;SDS011;65250;47.602;19.002;2023-07-13T11:56:05;6.20;;;5.82;;
76417;SDS011;65250;47.602;19.002;2023-07-13T11:58:32;6.75;;;6.20;;
76417;SDS011;65250;47.602;19.002;2023-07-13T12:01:01;6.40;;;6.00;;
76417;SDS011;65250;47.602;19.002;2023-07-13T12:03:31;6.60;;;6.20;;
76417;SDS011;65250;47.602;19.002;2023-07-13T12:08:28;8.25;;;7.70;;
76417;SDS011;65250;47.602;19.002;2023-07-13T12:10:56;8.63;;;8.02;;
76417;SDS011;65250;47.602;19.002;2023-07-13T12:13:24;7.93;;;7.43;;
76417;SDS011;65250;47.602;19.002;2023-07-13T12:15:53;8.13;;;7.63;;
76417;SDS011;65250;47.602;19.002;2023-07-13T12:18:22;8.52;;;7.95;;
76417;SDS011;65250;47.602;19.002;2023-07-13T12:20:50;9.13;;;8.63;;
76417;SDS011;65250;47.602;19.002;2023-07-13T12:23:23;7.90;;;7.40;;
76417;SDS011;65250;47.602;19.002;2023-07-13T12:25:52;8.55;;;8.05;;
76417;SDS011;65250;47.602;19.002;2023-07-13T12:28:20;8.30;;;7.85;;
76417;SDS011;65250;47.602;19.002;2023-07-13T12:30:48;8.93;;;8.32;;
76417;SDS011;65250;47.602;19.002;2023-07-13T12:33:15;7.65;;;7.10;;
76417;SDS011;65250;47.602;19.002;2023-07-13T12:35:47;9.30;;;8.70;;
76417;SDS011;65250;47.602;19.002;2023-07-13T12:38:16;7.13;;;6.72;;
76417;SDS011;65250;47.602;19.002;2023-07-13T12:40:43;9.55;;;8.95;;
76417;SDS011;65250;47.602;19.002;2023-07-13T12:43:13;9.27;;;8.43;;
76417;SDS011;65250;47.602;19.002;2023-07-13T12:45:57;9.55;;;8.95;;
76417;SDS011;65250;47.602;19.002;2023-07-13T12:48:25;9.95;;;9.35;;
76417;SDS011;65250;47.602;19.002;2023-07-13T12:51:11;10.13;;;9.48;;
76417;SDS011;65250;47.602;19.002;2023-07-13T12:53:43;9.65;;;9.05;;
76417;SDS011;65250;47.602;19.002;2023-07-13T12:56:17;10.35;;;9.75;;
76417;SDS011;65250;47.602;19.002;2023-07-13T12:58:47;11.77;;;11.13;;
76417;SDS011;65250;47.602;19.002;2023-07-13T13:01:25;10.75;;;10.23;;
76417;SDS011;65250;47.602;19.002;2023-07-13T13:03:53;11.95;;;11.25;;
76417;SDS011;65250;47.602;19.002;2023-07-13T13:06:24;10.55;;;9.88;;
76417;SDS011;65250;47.602;19.002;2023-07-13T13:08:53;12.07;;;11.38;;
76417;SDS011;65250;47.602;19.002;2023-07-13T13:11:22;12.23;;;11.52;;
76417;SDS011;65250;47.602;19.002;2023-07-13T13:13:49;12.20;;;11.60;;
76417;SDS011;65250;47.602;19.002;2023-07-13T13:16:19;11.52;;;10.93;;
76417;SDS011;65250;47.602;19.002;2023-07-13T13:18:53;11.90;;;11.20;;
76417;SDS011;65250;47.602;19.002;2023-07-13T13:21:23;11.35;;;10.75;;
76417;SDS011;65250;47.602;19.002;2023-07-13T13:23:51;9.30;;;8.80;;
76417;SDS011;65250;47.602;19.002;2023-07-13T13:26:21;10.57;;;9.98;;
76417;SDS011;65250;47.602;19.002;2023-07-13T13:28:48;11.70;;;11.10;;
76417;SDS011;65250;47.602;19.002;2023-07-13T13:31:15;12.15;;;11.52;;
76417;SDS011;65250;47.602;19.002;2023-07-13T13:33:43;11.68;;;10.98;;
76417;SDS011;65250;47.602;19.002;2023-07-13T13:36:15;11.27;;;10.68;;
76417;SDS011;65250;47.602;19.002;2023-07-13T13:38:43;11.88;;;11.27;;
76417;SDS011;65250;47.602;19.002;2023-07-13T13:41:11;12.07;;;11.40;;
76417;SDS011;65250;47.602;19.002;2023-07-13T13:43:40;11.05;;;10.35;;
76417;SDS011;65250;47.602;19.002;2023-07-13T13:46:13;11.65;;;11.05;;
76417;SDS011;65250;47.602;19.002;2023-07-13T13:48:48;12.02;;;11.43;;
76417;SDS011;65250;47.602;19.002;2023-07-13T13:51:17;12.77;;;12.07;;
76417;SDS011;65250;47.602;19.002;2023-07-13T13:53:45;12.57;;;11.73;;
76417;SDS011;65250;47.602;19.002;2023-07-13T13:56:14;11.43;;;10.73;;
76417;SDS011;65250;47.602;19.002;2023-07-13T13:58:41;11.10;;;10.30;;
76417;SDS011;65250;47.602;19.002;2023-07-13T14:01:18;11.27;;;10.68;;
76417;SDS011;65250;47.602;19.002;2023-07-13T14:03:46;11.73;;;10.90;;
76417;SDS011;65250;47.602;19.002;2023-07-13T14:06:18;10.80;;;10.10;;
76417;SDS011;65250;47.602;19.002;2023-07-13T14:08:45;10.18;;;9.57;;
76417;SDS011;65250;47.602;19.002;2023-07-13T14:11:15;8.52;;;8.10;;
76417;SDS011;65250;47.602;19.002;2023-07-13T14:13:44;8.18;;;7.78;;
76417;SDS011;65250;47.602;19.002;2023-07-13T14:16:17;7.63;;;7.15;;
76417;SDS011;65250;47.602;19.002;2023-07-13T14:18:46;7.10;;;6.55;;
76417;SDS011;65250;47.602;19.002;2023-07-13T14:21:14;6.30;;;5.90;;
76417;SDS011;65250;47.602;19.002;2023-07-13T14:23:43;5.53;;;5.22;;
76417;SDS011;65250;47.602;19.002;2023-07-13T14:26:14;5.50;;;5.20;;
76417;SDS011;65250;47.602;19.002;2023-07-13T14:28:45;5.53;;;5.13;;
76417;SDS011;65250;47.602;19.002;2023-07-13T14:31:14;5.43;;;5.00;;
76417;SDS011;65250;47.602;19.002;2023-07-13T14:33:43;5.22;;;4.82;;
76417;SDS011;65250;47.602;19.002;2023-07-13T14:38:42;4.05;;;3.75;;
76417;SDS011;65250;47.602;19.002;2023-07-13T14:41:09;4.07;;;3.70;;
76417;SDS011;65250;47.602;19.002;2023-07-13T14:43:36;4.40;;;4.00;;
76417;SDS011;65250;47.602;19.002;2023-07-13T14:46:02;4.13;;;3.83;;
76417;SDS011;65250;47.602;19.002;2023-07-13T14:48:30;4.28;;;3.97;;
76417;SDS011;65250;47.602;19.002;2023-07-13T14:50:57;4.47;;;4.18;;
76417;SDS011;65250;47.602;19.002;2023-07-13T14:53:25;4.25;;;3.83;;
76417;SDS011;65250;47.602;19.002;2023-07-13T14:55:54;4.23;;;3.83;;
76417;SDS011;65250;47.602;19.002;2023-07-13T14:58:21;3.85;;;3.60;;
76417;SDS011;65250;47.602;19.002;2023-07-13T15:00:47;4.50;;;4.10;;
76417;SDS011;65250;47.602;19.002;2023-07-13T15:03:18;4.07;;;3.85;;
76417;SDS011;65250;47.602;19.002;2023-07-13T15:05:48;4.25;;;3.90;;
76417;SDS011;65250;47.602;19.002;2023-07-13T15:08:15;4.00;;;3.70;;
76417;SDS011;65250;47.602;19.002;2023-07-13T15:10:42;4.32;;;3.92;;
76417;SDS011;65250;47.602;19.002;2023-07-13T15:13:16;4.95;;;3.80;;
76417;SDS011;65250;47.602;19.002;2023-07-13T15:15:46;4.00;;;3.70;;
76417;SDS011;65250;47.602;19.002;2023-07-13T15:18:15;3.58;;;3.35;;
76417;SDS011;65250;47.602;19.002;2023-07-13T15:20:44;6.67;;;3.80;;
76417;SDS011;65250;47.602;19.002;2023-07-13T15:23:12;4.13;;;3.80;;
76417;SDS011;65250;47.602;19.002;2023-07-13T15:25:40;4.20;;;3.65;;
76417;SDS011;65250;47.602;19.002;2023-07-13T15:28:08;7.15;;;3.70;;
76417;SDS011;65250;47.602;19.002;2023-07-13T15:30:44;5.72;;;3.30;;
76417;SDS011;65250;47.602;19.002;2023-07-13T15:33:15;4.30;;;3.80;;